sensor_id;sensor_type;location;lat;lon;timestamp;temperature;humidity
14119;DHT22;7138;49.246;9.100;2022-12-24T00:00:34;10.20;99.90
14119;DHT22;7138;49.246;9.100;2022-12-24T00:03:00;10.10;99.90
14119;DHT22;7138;49.246;9.100;2022-12-24T00:05:25;10.10;99.90
14119;DHT22;7138;49.246;9.100;2022-12-24T00:07:51;10.10;99.90
14119;DHT22;7138;49.246;9.100;2022-12-24T00:10:19;10.10;99.90
14119;DHT22;7138;49.246;9.100;2022-12-24T00:12:45;10.10;99.90
14119;DHT22;7138;49.246;9.100;2022-12-24T00:15:11;10.00;99.90
14119;DHT22;7138;49.246;9.100;2022-12-24T00:17:36;10.00;99.90
14119;DHT22;7138;49.246;9.100;2022-12-24T00:20:03;9.90;99.90
14119;DHT22;7138;49.246;9.100;2022-12-24T00:22:29;9.90;99.90
14119;DHT22;7138;49.246;9.100;2022-12-24T00:24:55;9.90;99.90
14119;DHT22;7138;49.246;9.100;2022-12-24T00:27:22;9.90;99.90
14119;DHT22;7138;49.246;9.100;2022-12-24T00:29:48;9.90;99.90
14119;DHT22;7138;49.246;9.100;2022-12-24T00:32:14;9.90;99.90
14119;DHT22;7138;49.246;9.100;2022-12-24T00:34:40;10.00;99.90
14119;DHT22;7138;49.246;9.100;2022-12-24T00:37:06;10.00;99.90
14119;DHT22;7138;49.246;9.100;2022-12-24T00:39:32;10.10;99.90
14119;DHT22;7138;49.246;9.100;2022-12-24T00:41:58;10.10;99.90
14119;DHT22;7138;49.246;9.100;2022-12-24T00:44:25;10.30;99.90
14119;DHT22;7138;49.246;9.100;2022-12-24T00:46:51;10.30;99.90
14119;DHT22;7138;49.246;9.100;2022-12-24T00:49:17;10.20;99.90
14119;DHT22;7138;49.246;9.100;2022-12-24T00:51:43;10.10;99.90
14119;DHT22;7138;49.246;9.100;2022-12-24T00:54:09;10.20;99.90
14119;DHT22;7138;49.246;9.100;2022-12-24T00:56:35;10.00;99.90
14119;DHT22;7138;49.246;9.100;2022-12-24T00:59:01;10.20;99.90
14119;DHT22;7138;49.246;9.100;2022-12-24T01:01:28;10.10;99.90
14119;DHT22;7138;49.246;9.100;2022-12-24T01:03:55;10.20;99.90
14119;DHT22;7138;49.246;9.100;2022-12-24T01:06:41;10.20;99.90
14119;DHT22;7138;49.246;9.100;2022-12-24T01:09:07;10.20;99.90
14119;DHT22;7138;49.246;9.100;2022-12-24T01:11:33;10.20;99.90
14119;DHT22;7138;49.246;9.100;2022-12-24T01:13:59;10.10;99.90
14119;DHT22;7138;49.246;9.100;2022-12-24T01:16:25;10.10;99.90
14119;DHT22;7138;49.246;9.100;2022-12-24T01:18:52;10.10;99.90
14119;DHT22;7138;49.246;9.100;2022-12-24T01:21:18;10.20;99.90
14119;DHT22;7138;49.246;9.100;2022-12-24T01:23:44;10.10;99.90
14119;DHT22;7138;49.246;9.100;2022-12-24T01:26:10;10.10;99.90
14119;DHT22;7138;49.246;9.100;2022-12-24T01:28:40;10.00;99.90
14119;DHT22;7138;49.246;9.100;2022-12-24T01:31:10;9.90;99.90
14119;DHT22;7138;49.246;9.100;2022-12-24T01:33:36;10.20;99.90
14119;DHT22;7138;49.246;9.100;2022-12-24T01:36:04;10.10;99.90
14119;DHT22;7138;49.246;9.100;2022-12-24T01:38:30;10.10;99.90
14119;DHT22;7138;49.246;9.100;2022-12-24T01:40:56;10.10;99.90
14119;DHT22;7138;49.246;9.100;2022-12-24T01:43:41;10.00;99.90
14119;DHT22;7138;49.246;9.100;2022-12-24T01:46:11;9.90;99.90
14119;DHT22;7138;49.246;9.100;2022-12-24T01:48:44;9.90;99.90
14119;DHT22;7138;49.246;9.100;2022-12-24T01:51:18;10.00;99.90
14119;DHT22;7138;49.246;9.100;2022-12-24T01:53:51;10.10;99.90
14119;DHT22;7138;49.246;9.100;2022-12-24T01:56:20;10.20;99.90
14119;DHT22;7138;49.246;9.100;2022-12-24T01:58:51;10.10;99.90
14119;DHT22;7138;49.246;9.100;2022-12-24T02:01:20;9.90;99.90
14119;DHT22;7138;49.246;9.100;2022-12-24T02:03:46;9.80;99.90
14119;DHT22;7138;49.246;9.100;2022-12-24T02:06:15;9.70;99.90
14119;DHT22;7138;49.246;9.100;2022-12-24T02:08:41;9.60;99.90
14119;DHT22;7138;49.246;9.100;2022-12-24T02:11:12;9.50;99.90
14119;DHT22;7138;49.246;9.100;2022-12-24T02:13:39;9.40;99.90
14119;DHT22;7138;49.246;9.100;2022-12-24T02:16:16;9.40;99.90
14119;DHT22;7138;49.246;9.100;2022-12-24T02:18:55;9.40;99.90
14119;DHT22;7138;49.246;9.100;2022-12-24T02:21:44;9.40;99.90
14119;DHT22;7138;49.246;9.100;2022-12-24T02:27:42;9.40;99.90
14119;DHT22;7138;49.246;9.100;2022-12-24T02:30:21;9.30;99.90
14119;DHT22;7138;49.246;9.100;2022-12-24T02:33:03;9.20;99.90
14119;DHT22;7138;49.246;9.100;2022-12-24T02:35:46;9.40;99.90
14119;DHT22;7138;49.246;9.100;2022-12-24T02:38:19;9.30;99.90
14119;DHT22;7138;49.246;9.100;2022-12-24T02:40:54;9.40;99.90
14119;DHT22;7138;49.246;9.100;2022-12-24T02:43:26;9.40;99.90
14119;DHT22;7138;49.246;9.100;2022-12-24T02:46:00;9.40;99.90
14119;DHT22;7138;49.246;9.100;2022-12-24T02:48:31;9.20;99.90
14119;DHT22;7138;49.246;9.100;2022-12-24T02:51:01;9.30;99.90
14119;DHT22;7138;49.246;9.100;2022-12-24T02:53:30;9.30;99.90
14119;DHT22;7138;49.246;9.100;2022-12-24T02:59:28;9.20;99.90
14119;DHT22;7138;49.246;9.100;2022-12-24T03:02:08;9.50;99.90
14119;DHT22;7138;49.246;9.100;2022-12-24T03:04:47;9.30;99.90
14119;DHT22;7138;49.246;9.100;2022-12-24T03:07:25;9.30;99.90
14119;DHT22;7138;49.246;9.100;2022-12-24T03:10:06;9.20;99.90
14119;DHT22;7138;49.246;9.100;2022-12-24T03:12:42;9.20;99.90
14119;DHT22;7138;49.246;9.100;2022-12-24T03:15:13;9.20;99.90
14119;DHT22;7138;49.246;9.100;2022-12-24T03:17:44;9.20;99.90
14119;DHT22;7138;49.246;9.100;2022-12-24T03:20:15;9.20;99.90
14119;DHT22;7138;49.246;9.100;2022-12-24T03:22:45;9.30;99.90
14119;DHT22;7138;49.246;9.100;2022-12-24T03:25:11;9.40;99.90
14119;DHT22;7138;49.246;9.100;2022-12-24T03:27:37;9.40;99.90
14119;DHT22;7138;49.246;9.100;2022-12-24T03:30:08;9.30;99.90
14119;DHT22;7138;49.246;9.100;2022-12-24T03:32:36;9.30;99.90
14119;DHT22;7138;49.246;9.100;2022-12-24T03:35:04;9.20;99.90
14119;DHT22;7138;49.246;9.100;2022-12-24T03:37:31;9.20;99.90
14119;DHT22;7138;49.246;9.100;2022-12-24T03:39:56;9.40;99.90
14119;DHT22;7138;49.246;9.100;2022-12-24T03:42:23;9.20;99.90
14119;DHT22;7138;49.246;9.100;2022-12-24T03:44:48;9.20;99.90
14119;DHT22;7138;49.246;9.100;2022-12-24T03:47:14;9.20;99.90
14119;DHT22;7138;49.246;9.100;2022-12-24T03:49:40;9.20;99.90
14119;DHT22;7138;49.246;9.100;2022-12-24T03:52:08;9.20;99.90
14119;DHT22;7138;49.246;9.100;2022-12-24T03:54:34;9.10;99.90
14119;DHT22;7138;49.246;9.100;2022-12-24T03:57:00;9.20;99.90
14119;DHT22;7138;49.246;9.100;2022-12-24T03:59:26;9.20;99.90
14119;DHT22;7138;49.246;9.100;2022-12-24T04:01:52;9.10;99.90
14119;DHT22;7138;49.246;9.100;2022-12-24T04:04:18;9.20;99.90
14119;DHT22;7138;49.246;9.100;2022-12-24T04:06:44;9.20;99.90
14119;DHT22;7138;49.246;9.100;2022-12-24T04:09:11;9.30;99.90
14119;DHT22;7138;49.246;9.100;2022-12-24T04:11:37;9.20;99.90
14119;DHT22;7138;49.246;9.100;2022-12-24T04:14:02;9.30;99.90
14119;DHT22;7138;49.246;9.100;2022-12-24T04:16:28;9.30;99.90
14119;DHT22;7138;49.246;9.100;2022-12-24T04:18:54;9.30;99.90
14119;DHT22;7138;49.246;9.100;2022-12-24T04:21:20;9.20;99.90
14119;DHT22;7138;49.246;9.100;2022-12-24T04:23:46;9.20;99.90
14119;DHT22;7138;49.246;9.100;2022-12-24T04:26:14;9.20;99.90
14119;DHT22;7138;49.246;9.100;2022-12-24T04:28:41;9.10;99.90
14119;DHT22;7138;49.246;9.100;2022-12-24T04:31:08;9.00;99.90
14119;DHT22;7138;49.246;9.100;2022-12-24T04:33:36;9.00;99.90
14119;DHT22;7138;49.246;9.100;2022-12-24T04:36:04;8.90;99.90
14119;DHT22;7138;49.246;9.100;2022-12-24T04:38:32;8.90;99.90
14119;DHT22;7138;49.246;9.100;2022-12-24T04:40:58;8.90;99.90
14119;DHT22;7138;49.246;9.100;2022-12-24T04:43:26;9.00;99.90
14119;DHT22;7138;49.246;9.100;2022-12-24T04:45:53;9.10;99.90
14119;DHT22;7138;49.246;9.100;2022-12-24T04:48:19;9.20;99.90
14119;DHT22;7138;49.246;9.100;2022-12-24T04:50:45;9.20;99.90
14119;DHT22;7138;49.246;9.100;2022-12-24T04:53:11;9.30;99.90
14119;DHT22;7138;49.246;9.100;2022-12-24T04:55:43;9.30;99.90
14119;DHT22;7138;49.246;9.100;2022-12-24T04:58:10;9.30;99.90
14119;DHT22;7138;49.246;9.100;2022-12-24T05:00:37;9.50;99.90
14119;DHT22;7138;49.246;9.100;2022-12-24T05:03:03;9.40;99.90
14119;DHT22;7138;49.246;9.100;2022-12-24T05:05:29;9.40;99.90
14119;DHT22;7138;49.246;9.100;2022-12-24T05:07:55;9.40;99.90
14119;DHT22;7138;49.246;9.100;2022-12-24T05:10:21;9.40;99.90
14119;DHT22;7138;49.246;9.100;2022-12-24T05:12:47;9.50;99.90
14119;DHT22;7138;49.246;9.100;2022-12-24T05:15:12;9.50;99.90
14119;DHT22;7138;49.246;9.100;2022-12-24T05:17:40;9.50;99.90
14119;DHT22;7138;49.246;9.100;2022-12-24T05:20:06;9.50;99.90
14119;DHT22;7138;49.246;9.100;2022-12-24T05:22:32;9.50;99.90
14119;DHT22;7138;49.246;9.100;2022-12-24T05:25:17;9.50;99.90
14119;DHT22;7138;49.246;9.100;2022-12-24T05:28:15;9.40;99.90
14119;DHT22;7138;49.246;9.100;2022-12-24T05:30:41;9.60;99.90
14119;DHT22;7138;49.246;9.100;2022-12-24T05:33:08;9.60;99.90
14119;DHT22;7138;49.246;9.100;2022-12-24T05:35:34;9.70;99.90
14119;DHT22;7138;49.246;9.100;2022-12-24T05:38:00;9.80;99.90
14119;DHT22;7138;49.246;9.100;2022-12-24T05:40:26;9.80;99.90
14119;DHT22;7138;49.246;9.100;2022-12-24T05:42:52;9.80;99.90
14119;DHT22;7138;49.246;9.100;2022-12-24T05:45:17;9.80;99.90
14119;DHT22;7138;49.246;9.100;2022-12-24T05:47:44;9.90;99.90
14119;DHT22;7138;49.246;9.100;2022-12-24T05:50:11;9.90;99.90
14119;DHT22;7138;49.246;9.100;2022-12-24T05:52:37;9.90;99.90
14119;DHT22;7138;49.246;9.100;2022-12-24T05:55:04;9.90;99.90
14119;DHT22;7138;49.246;9.100;2022-12-24T05:57:30;9.80;99.90
14119;DHT22;7138;49.246;9.100;2022-12-24T05:59:56;9.80;99.90
14119;DHT22;7138;49.246;9.100;2022-12-24T06:02:22;9.80;99.90
14119;DHT22;7138;49.246;9.100;2022-12-24T06:04:48;9.90;99.90
14119;DHT22;7138;49.246;9.100;2022-12-24T06:07:15;9.80;99.90
14119;DHT22;7138;49.246;9.100;2022-12-24T06:09:41;9.90;99.90
14119;DHT22;7138;49.246;9.100;2022-12-24T06:12:06;9.90;99.90
14119;DHT22;7138;49.246;9.100;2022-12-24T06:14:32;9.90;99.90
14119;DHT22;7138;49.246;9.100;2022-12-24T06:16:58;10.00;99.90
14119;DHT22;7138;49.246;9.100;2022-12-24T06:19:24;9.90;99.90
14119;DHT22;7138;49.246;9.100;2022-12-24T06:21:50;9.90;99.90
14119;DHT22;7138;49.246;9.100;2022-12-24T06:24:17;9.90;99.90
14119;DHT22;7138;49.246;9.100;2022-12-24T06:26:43;9.80;99.90
14119;DHT22;7138;49.246;9.100;2022-12-24T06:29:08;9.80;99.90
14119;DHT22;7138;49.246;9.100;2022-12-24T06:31:36;9.90;99.90
14119;DHT22;7138;49.246;9.100;2022-12-24T06:34:01;9.90;99.90
14119;DHT22;7138;49.246;9.100;2022-12-24T06:36:27;9.80;99.90
14119;DHT22;7138;49.246;9.100;2022-12-24T06:38:54;9.80;99.90
14119;DHT22;7138;49.246;9.100;2022-12-24T06:41:21;9.70;99.90
14119;DHT22;7138;49.246;9.100;2022-12-24T06:43:49;9.60;99.90
14119;DHT22;7138;49.246;9.100;2022-12-24T06:46:17;9.60;99.90
14119;DHT22;7138;49.246;9.100;2022-12-24T06:48:44;9.50;99.90
14119;DHT22;7138;49.246;9.100;2022-12-24T06:51:11;9.60;99.90
14119;DHT22;7138;49.246;9.100;2022-12-24T06:53:37;9.70;99.90
14119;DHT22;7138;49.246;9.100;2022-12-24T06:56:04;9.70;99.90
14119;DHT22;7138;49.246;9.100;2022-12-24T06:58:33;9.60;99.90
14119;DHT22;7138;49.246;9.100;2022-12-24T07:01:00;9.60;99.90
14119;DHT22;7138;49.246;9.100;2022-12-24T07:03:27;9.60;99.90
14119;DHT22;7138;49.246;9.100;2022-12-24T07:05:53;9.50;99.90
14119;DHT22;7138;49.246;9.100;2022-12-24T07:08:19;9.50;99.90
14119;DHT22;7138;49.246;9.100;2022-12-24T07:10:44;9.50;99.90
14119;DHT22;7138;49.246;9.100;2022-12-24T07:13:12;9.40;99.90
14119;DHT22;7138;49.246;9.100;2022-12-24T07:15:39;9.60;99.90
14119;DHT22;7138;49.246;9.100;2022-12-24T07:18:05;9.60;99.90
14119;DHT22;7138;49.246;9.100;2022-12-24T07:20:31;9.50;99.90
14119;DHT22;7138;49.246;9.100;2022-12-24T07:22:57;9.50;99.90
14119;DHT22;7138;49.246;9.100;2022-12-24T07:25:22;9.50;99.90
14119;DHT22;7138;49.246;9.100;2022-12-24T07:27:48;9.50;99.90
14119;DHT22;7138;49.246;9.100;2022-12-24T07:30:14;9.50;99.90
14119;DHT22;7138;49.246;9.100;2022-12-24T07:32:42;9.50;99.90
14119;DHT22;7138;49.246;9.100;2022-12-24T07:35:09;9.50;99.90
14119;DHT22;7138;49.246;9.100;2022-12-24T07:37:34;9.60;99.90
14119;DHT22;7138;49.246;9.100;2022-12-24T07:40:01;9.60;99.90
14119;DHT22;7138;49.246;9.100;2022-12-24T07:42:26;9.70;99.90
14119;DHT22;7138;49.246;9.100;2022-12-24T07:44:52;9.50;99.90
14119;DHT22;7138;49.246;9.100;2022-12-24T07:47:18;9.40;99.90
14119;DHT22;7138;49.246;9.100;2022-12-24T07:49:45;9.40;99.90
14119;DHT22;7138;49.246;9.100;2022-12-24T07:52:11;9.50;99.90
14119;DHT22;7138;49.246;9.100;2022-12-24T07:54:37;9.50;99.90
14119;DHT22;7138;49.246;9.100;2022-12-24T07:57:03;9.60;99.90
14119;DHT22;7138;49.246;9.100;2022-12-24T07:59:28;9.60;99.90
14119;DHT22;7138;49.246;9.100;2022-12-24T08:01:54;9.60;99.90
14119;DHT22;7138;49.246;9.100;2022-12-24T08:04:20;9.50;99.90
14119;DHT22;7138;49.246;9.100;2022-12-24T08:06:47;9.60;99.90
14119;DHT22;7138;49.246;9.100;2022-12-24T08:09:13;9.60;99.90
14119;DHT22;7138;49.246;9.100;2022-12-24T08:11:39;9.60;99.90
14119;DHT22;7138;49.246;9.100;2022-12-24T08:14:05;9.50;99.90
14119;DHT22;7138;49.246;9.100;2022-12-24T08:16:32;9.50;99.90
14119;DHT22;7138;49.246;9.100;2022-12-24T08:18:58;9.50;99.90
14119;DHT22;7138;49.246;9.100;2022-12-24T08:21:24;9.60;99.90
14119;DHT22;7138;49.246;9.100;2022-12-24T08:23:51;9.60;99.90
14119;DHT22;7138;49.246;9.100;2022-12-24T08:26:17;9.60;99.90
14119;DHT22;7138;49.246;9.100;2022-12-24T08:28:43;9.60;99.90
14119;DHT22;7138;49.246;9.100;2022-12-24T08:31:09;9.60;99.90
14119;DHT22;7138;49.246;9.100;2022-12-24T08:33:35;9.70;99.90
14119;DHT22;7138;49.246;9.100;2022-12-24T08:36:01;9.80;99.90
14119;DHT22;7138;49.246;9.100;2022-12-24T08:38:28;9.80;99.90
14119;DHT22;7138;49.246;9.100;2022-12-24T08:40:55;9.80;99.90
14119;DHT22;7138;49.246;9.100;2022-12-24T08:43:21;9.80;99.90
14119;DHT22;7138;49.246;9.100;2022-12-24T08:45:49;9.80;99.90
14119;DHT22;7138;49.246;9.100;2022-12-24T08:48:16;9.80;99.90
14119;DHT22;7138;49.246;9.100;2022-12-24T08:50:43;9.80;99.90
14119;DHT22;7138;49.246;9.100;2022-12-24T08:53:10;9.80;99.90
14119;DHT22;7138;49.246;9.100;2022-12-24T08:55:36;9.80;99.90
14119;DHT22;7138;49.246;9.100;2022-12-24T08:58:03;9.80;99.90
14119;DHT22;7138;49.246;9.100;2022-12-24T09:00:29;9.90;99.90
14119;DHT22;7138;49.246;9.100;2022-12-24T09:02:55;10.00;99.90
14119;DHT22;7138;49.246;9.100;2022-12-24T09:05:22;10.10;99.90
14119;DHT22;7138;49.246;9.100;2022-12-24T09:07:48;10.00;99.90
14119;DHT22;7138;49.246;9.100;2022-12-24T09:10:13;10.00;99.90
14119;DHT22;7138;49.246;9.100;2022-12-24T09:12:39;10.00;99.90
14119;DHT22;7138;49.246;9.100;2022-12-24T09:15:08;10.00;99.90
14119;DHT22;7138;49.246;9.100;2022-12-24T09:17:34;10.00;99.90
14119;DHT22;7138;49.246;9.100;2022-12-24T09:20:00;10.10;99.90
14119;DHT22;7138;49.246;9.100;2022-12-24T09:22:26;10.10;99.90
14119;DHT22;7138;49.246;9.100;2022-12-24T09:24:52;10.10;99.90
14119;DHT22;7138;49.246;9.100;2022-12-24T09:27:18;10.10;99.90
14119;DHT22;7138;49.246;9.100;2022-12-24T09:29:44;10.10;99.90
14119;DHT22;7138;49.246;9.100;2022-12-24T09:32:11;10.10;99.90
14119;DHT22;7138;49.246;9.100;2022-12-24T09:34:37;10.10;99.90
14119;DHT22;7138;49.246;9.100;2022-12-24T09:37:07;10.00;99.90
14119;DHT22;7138;49.246;9.100;2022-12-24T09:39:33;10.10;99.90
14119;DHT22;7138;49.246;9.100;2022-12-24T09:42:06;10.10;99.90
14119;DHT22;7138;49.246;9.100;2022-12-24T09:44:44;10.10;99.90
14119;DHT22;7138;49.246;9.100;2022-12-24T09:47:21;10.20;99.90
14119;DHT22;7138;49.246;9.100;2022-12-24T09:49:52;10.20;99.90
14119;DHT22;7138;49.246;9.100;2022-12-24T09:52:27;10.20;99.90
14119;DHT22;7138;49.246;9.100;2022-12-24T09:55:03;10.30;99.90
14119;DHT22;7138;49.246;9.100;2022-12-24T09:57:35;10.30;99.90
14119;DHT22;7138;49.246;9.100;2022-12-24T10:00:10;10.30;99.90
14119;DHT22;7138;49.246;9.100;2022-12-24T10:02:45;10.30;99.90
14119;DHT22;7138;49.246;9.100;2022-12-24T10:05:13;10.20;99.90
14119;DHT22;7138;49.246;9.100;2022-12-24T10:07:47;10.30;99.90
14119;DHT22;7138;49.246;9.100;2022-12-24T10:10:26;10.30;99.90
14119;DHT22;7138;49.246;9.100;2022-12-24T10:13:03;10.40;99.90
14119;DHT22;7138;49.246;9.100;2022-12-24T10:15:47;10.50;99.90
14119;DHT22;7138;49.246;9.100;2022-12-24T10:18:28;10.50;99.90
14119;DHT22;7138;49.246;9.100;2022-12-24T10:21:04;10.40;99.90
14119;DHT22;7138;49.246;9.100;2022-12-24T10:23:40;10.40;99.90
14119;DHT22;7138;49.246;9.100;2022-12-24T10:26:14;10.40;99.90
14119;DHT22;7138;49.246;9.100;2022-12-24T10:28:46;10.40;99.90
14119;DHT22;7138;49.246;9.100;2022-12-24T10:31:17;10.50;99.90
14119;DHT22;7138;49.246;9.100;2022-12-24T10:33:55;10.70;99.90
14119;DHT22;7138;49.246;9.100;2022-12-24T10:36:28;11.00;99.90
14119;DHT22;7138;49.246;9.100;2022-12-24T10:38:54;11.10;99.90
14119;DHT22;7138;49.246;9.100;2022-12-24T10:41:23;11.10;99.90
14119;DHT22;7138;49.246;9.100;2022-12-24T10:43:51;11.10;99.90
14119;DHT22;7138;49.246;9.100;2022-12-24T10:46:20;11.10;99.90
14119;DHT22;7138;49.246;9.100;2022-12-24T10:48:53;11.20;99.90
14119;DHT22;7138;49.246;9.100;2022-12-24T10:51:39;11.40;99.90
14119;DHT22;7138;49.246;9.100;2022-12-24T10:54:11;11.30;99.90
14119;DHT22;7138;49.246;9.100;2022-12-24T10:56:42;11.60;99.90
14119;DHT22;7138;49.246;9.100;2022-12-24T10:59:23;11.90;99.90
14119;DHT22;7138;49.246;9.100;2022-12-24T11:01:50;11.90;99.90
14119;DHT22;7138;49.246;9.100;2022-12-24T11:04:22;11.80;99.90
14119;DHT22;7138;49.246;9.100;2022-12-24T11:06:56;11.80;99.90
14119;DHT22;7138;49.246;9.100;2022-12-24T11:09:27;11.70;99.90
14119;DHT22;7138;49.246;9.100;2022-12-24T11:11:55;11.60;99.90
14119;DHT22;7138;49.246;9.100;2022-12-24T11:14:23;11.40;99.90
14119;DHT22;7138;49.246;9.100;2022-12-24T11:16:53;11.30;99.90
14119;DHT22;7138;49.246;9.100;2022-12-24T11:19:29;11.30;99.90
14119;DHT22;7138;49.246;9.100;2022-12-24T11:21:59;11.40;99.90
14119;DHT22;7138;49.246;9.100;2022-12-24T11:24:30;11.40;99.90
14119;DHT22;7138;49.246;9.100;2022-12-24T11:27:23;11.30;99.90
14119;DHT22;7138;49.246;9.100;2022-12-24T11:30:26;11.20;99.90
14119;DHT22;7138;49.246;9.100;2022-12-24T11:33:16;11.40;99.90
14119;DHT22;7138;49.246;9.100;2022-12-24T11:35:48;11.40;99.90
14119;DHT22;7138;49.246;9.100;2022-12-24T11:38:22;11.40;99.90
14119;DHT22;7138;49.246;9.100;2022-12-24T11:40:57;11.40;99.90
14119;DHT22;7138;49.246;9.100;2022-12-24T11:43:25;11.70;99.90
14119;DHT22;7138;49.246;9.100;2022-12-24T11:46:36;12.00;99.90
14119;DHT22;7138;49.246;9.100;2022-12-24T11:49:20;12.00;99.90
14119;DHT22;7138;49.246;9.100;2022-12-24T11:52:10;12.10;99.90
14119;DHT22;7138;49.246;9.100;2022-12-24T11:54:50;12.30;99.90
14119;DHT22;7138;49.246;9.100;2022-12-24T11:57:33;12.40;99.90
14119;DHT22;7138;49.246;9.100;2022-12-24T12:00:10;12.30;99.90
14119;DHT22;7138;49.246;9.100;2022-12-24T12:02:37;12.30;99.90
14119;DHT22;7138;49.246;9.100;2022-12-24T12:05:07;12.40;99.90
14119;DHT22;7138;49.246;9.100;2022-12-24T12:07:37;12.50;99.90
14119;DHT22;7138;49.246;9.100;2022-12-24T12:10:06;12.80;99.90
14119;DHT22;7138;49.246;9.100;2022-12-24T12:12:43;12.50;99.90
14119;DHT22;7138;49.246;9.100;2022-12-24T12:15:13;12.30;99.90
14119;DHT22;7138;49.246;9.100;2022-12-24T12:17:47;12.10;99.90
14119;DHT22;7138;49.246;9.100;2022-12-24T12:20:20;11.90;99.90
14119;DHT22;7138;49.246;9.100;2022-12-24T12:22:54;11.70;99.90
14119;DHT22;7138;49.246;9.100;2022-12-24T12:25:27;11.60;99.90
14119;DHT22;7138;49.246;9.100;2022-12-24T12:27:59;11.70;99.90
14119;DHT22;7138;49.246;9.100;2022-12-24T12:30:27;11.70;99.90
14119;DHT22;7138;49.246;9.100;2022-12-24T12:32:59;11.60;99.90
14119;DHT22;7138;49.246;9.100;2022-12-24T12:35:31;11.60;99.90
14119;DHT22;7138;49.246;9.100;2022-12-24T12:38:04;11.60;99.90
14119;DHT22;7138;49.246;9.100;2022-12-24T12:40:56;11.50;99.90
14119;DHT22;7138;49.246;9.100;2022-12-24T12:43:55;11.40;99.90
14119;DHT22;7138;49.246;9.100;2022-12-24T12:47:02;11.50;99.90
14119;DHT22;7138;49.246;9.100;2022-12-24T12:49:47;11.30;99.90
14119;DHT22;7138;49.246;9.100;2022-12-24T12:52:43;11.30;99.90
14119;DHT22;7138;49.246;9.100;2022-12-24T12:55:32;11.30;99.90
14119;DHT22;7138;49.246;9.100;2022-12-24T12:58:12;11.30;99.90
14119;DHT22;7138;49.246;9.100;2022-12-24T13:00:42;11.40;99.90
14119;DHT22;7138;49.246;9.100;2022-12-24T13:09:51;11.40;99.90
14119;DHT22;7138;49.246;9.100;2022-12-24T13:12:42;11.40;99.90
14119;DHT22;7138;49.246;9.100;2022-12-24T13:15:44;11.40;99.90
14119;DHT22;7138;49.246;9.100;2022-12-24T13:18:43;11.40;99.90
14119;DHT22;7138;49.246;9.100;2022-12-24T13:21:21;11.30;99.90
14119;DHT22;7138;49.246;9.100;2022-12-24T13:23:49;11.20;99.90
14119;DHT22;7138;49.246;9.100;2022-12-24T13:26:29;11.20;99.90
14119;DHT22;7138;49.246;9.100;2022-12-24T13:29:28;11.10;99.90
14119;DHT22;7138;49.246;9.100;2022-12-24T13:35:28;10.90;99.90
14119;DHT22;7138;49.246;9.100;2022-12-24T13:38:40;10.90;99.90
14119;DHT22;7138;49.246;9.100;2022-12-24T13:44:24;10.80;99.90
14119;DHT22;7138;49.246;9.100;2022-12-24T13:49:47;10.70;99.90
14119;DHT22;7138;49.246;9.100;2022-12-24T13:52:25;10.50;99.90
14119;DHT22;7138;49.246;9.100;2022-12-24T13:55:13;10.50;99.90
14119;DHT22;7138;49.246;9.100;2022-12-24T13:57:50;10.40;99.90
14119;DHT22;7138;49.246;9.100;2022-12-24T14:00:31;10.40;99.90
14119;DHT22;7138;49.246;9.100;2022-12-24T14:03:04;10.30;99.90
14119;DHT22;7138;49.246;9.100;2022-12-24T14:05:47;10.30;99.90
14119;DHT22;7138;49.246;9.100;2022-12-24T14:08:27;10.30;99.90
14119;DHT22;7138;49.246;9.100;2022-12-24T14:11:04;10.30;99.90
14119;DHT22;7138;49.246;9.100;2022-12-24T14:13:55;10.30;99.90
14119;DHT22;7138;49.246;9.100;2022-12-24T14:16:47;10.40;99.90
14119;DHT22;7138;49.246;9.100;2022-12-24T14:19:17;10.40;99.90
14119;DHT22;7138;49.246;9.100;2022-12-24T14:21:52;10.40;99.90
14119;DHT22;7138;49.246;9.100;2022-12-24T14:24:23;10.40;99.90
14119;DHT22;7138;49.246;9.100;2022-12-24T14:26:53;10.40;99.90
14119;DHT22;7138;49.246;9.100;2022-12-24T14:29:26;10.50;99.90
14119;DHT22;7138;49.246;9.100;2022-12-24T14:31:57;10.50;99.90
14119;DHT22;7138;49.246;9.100;2022-12-24T14:34:23;10.50;99.90
14119;DHT22;7138;49.246;9.100;2022-12-24T14:36:53;10.50;99.90
14119;DHT22;7138;49.246;9.100;2022-12-24T14:39:24;10.50;99.90
14119;DHT22;7138;49.246;9.100;2022-12-24T14:42:16;10.50;99.90
14119;DHT22;7138;49.246;9.100;2022-12-24T14:45:02;10.50;99.90
14119;DHT22;7138;49.246;9.100;2022-12-24T14:47:38;10.30;99.90
14119;DHT22;7138;49.246;9.100;2022-12-24T14:50:32;10.20;99.90
14119;DHT22;7138;49.246;9.100;2022-12-24T14:53:20;10.10;99.90
14119;DHT22;7138;49.246;9.100;2022-12-24T14:55:53;9.90;99.90
14119;DHT22;7138;49.246;9.100;2022-12-24T14:58:24;9.80;99.90
14119;DHT22;7138;49.246;9.100;2022-12-24T15:00:52;9.70;99.90
14119;DHT22;7138;49.246;9.100;2022-12-24T15:03:21;9.70;99.90
14119;DHT22;7138;49.246;9.100;2022-12-24T15:05:51;9.70;99.90
14119;DHT22;7138;49.246;9.100;2022-12-24T15:08:22;9.70;99.90
14119;DHT22;7138;49.246;9.100;2022-12-24T15:10:54;9.80;99.90
14119;DHT22;7138;49.246;9.100;2022-12-24T15:13:27;9.80;99.90
14119;DHT22;7138;49.246;9.100;2022-12-24T15:15:59;9.80;99.90
14119;DHT22;7138;49.246;9.100;2022-12-24T15:18:29;9.80;99.90
14119;DHT22;7138;49.246;9.100;2022-12-24T15:20:59;9.90;99.90
14119;DHT22;7138;49.246;9.100;2022-12-24T15:23:30;9.90;99.90
14119;DHT22;7138;49.246;9.100;2022-12-24T15:26:08;9.80;99.90
14119;DHT22;7138;49.246;9.100;2022-12-24T15:28:41;9.90;99.90
14119;DHT22;7138;49.246;9.100;2022-12-24T15:31:10;9.70;99.90
14119;DHT22;7138;49.246;9.100;2022-12-24T15:33:38;9.70;99.90
14119;DHT22;7138;49.246;9.100;2022-12-24T15:36:06;9.70;99.90
14119;DHT22;7138;49.246;9.100;2022-12-24T15:38:36;9.70;99.90
14119;DHT22;7138;49.246;9.100;2022-12-24T15:41:07;9.70;99.90
14119;DHT22;7138;49.246;9.100;2022-12-24T15:43:42;9.60;99.90
14119;DHT22;7138;49.246;9.100;2022-12-24T15:46:17;9.50;99.90
14119;DHT22;7138;49.246;9.100;2022-12-24T15:48:45;9.50;99.90
14119;DHT22;7138;49.246;9.100;2022-12-24T15:51:18;9.40;99.90
14119;DHT22;7138;49.246;9.100;2022-12-24T15:53:51;9.30;99.90
14119;DHT22;7138;49.246;9.100;2022-12-24T15:56:31;9.20;99.90
14119;DHT22;7138;49.246;9.100;2022-12-24T15:59:27;9.10;99.90
14119;DHT22;7138;49.246;9.100;2022-12-24T16:01:56;9.00;99.90
14119;DHT22;7138;49.246;9.100;2022-12-24T16:04:52;9.00;99.90
14119;DHT22;7138;49.246;9.100;2022-12-24T16:07:23;9.00;99.90
14119;DHT22;7138;49.246;9.100;2022-12-24T16:09:51;9.00;99.90
14119;DHT22;7138;49.246;9.100;2022-12-24T16:12:37;9.00;99.90
14119;DHT22;7138;49.246;9.100;2022-12-24T16:15:03;9.00;99.90
14119;DHT22;7138;49.246;9.100;2022-12-24T16:17:32;9.00;99.90
14119;DHT22;7138;49.246;9.100;2022-12-24T16:20:03;9.00;99.90
14119;DHT22;7138;49.246;9.100;2022-12-24T16:22:32;9.10;99.90
14119;DHT22;7138;49.246;9.100;2022-12-24T16:25:14;9.10;99.90
14119;DHT22;7138;49.246;9.100;2022-12-24T16:27:47;9.10;99.90
14119;DHT22;7138;49.246;9.100;2022-12-24T16:30:13;9.10;99.90
14119;DHT22;7138;49.246;9.100;2022-12-24T16:32:39;9.10;99.90
14119;DHT22;7138;49.246;9.100;2022-12-24T16:35:19;9.10;99.90
14119;DHT22;7138;49.246;9.100;2022-12-24T16:37:49;9.00;99.90
14119;DHT22;7138;49.246;9.100;2022-12-24T16:40:16;9.00;99.90
14119;DHT22;7138;49.246;9.100;2022-12-24T16:42:42;8.90;99.90